sensor_id;sensor_type;location;lat;lon;timestamp;pressure;altitude;pressure_sealevel;temperature;humidity
29121;BME280;16191;49.548;8.658;2023-02-17T00:01:18;101161.88;;;10.54;93.06
29121;BME280;16191;49.548;8.658;2023-02-17T00:03:47;101158.44;;;10.52;93.03
29121;BME280;16191;49.548;8.658;2023-02-17T00:06:16;101154.94;;;10.53;92.89
29121;BME280;16191;49.548;8.658;2023-02-17T00:08:43;101155.88;;;10.51;93.82
29121;BME280;16191;49.548;8.658;2023-02-17T00:11:10;101150.47;;;10.58;91.42
29121;BME280;16191;49.548;8.658;2023-02-17T00:13:37;101152.25;;;10.56;94.79
29121;BME280;16191;49.548;8.658;2023-02-17T00:16:06;101148.91;;;10.51;98.92
29121;BME280;16191;49.548;8.658;2023-02-17T00:18:34;101146.25;;;10.53;98.55
29121;BME280;16191;49.548;8.658;2023-02-17T00:21:12;101143.59;;;10.54;99.67
29121;BME280;16191;49.548;8.658;2023-02-17T00:23:40;101144.66;;;10.47;100.00
29121;BME280;16191;49.548;8.658;2023-02-17T00:26:07;101136.91;;;10.44;100.00
29121;BME280;16191;49.548;8.658;2023-02-17T00:28:34;101142.00;;;10.49;100.00
29121;BME280;16191;49.548;8.658;2023-02-17T00:31:06;101145.53;;;10.46;100.00
29121;BME280;16191;49.548;8.658;2023-02-17T00:33:33;101147.28;;;10.46;100.00
29121;BME280;16191;49.548;8.658;2023-02-17T00:36:10;101141.25;;;10.44;100.00
29121;BME280;16191;49.548;8.658;2023-02-17T00:38:38;101149.00;;;10.47;100.00
29121;BME280;16191;49.548;8.658;2023-02-17T00:41:05;101139.56;;;10.41;100.00
29121;BME280;16191;49.548;8.658;2023-02-17T00:43:32;101150.78;;;10.45;100.00
29121;BME280;16191;49.548;8.658;2023-02-17T00:45:59;101143.09;;;10.40;100.00
29121;BME280;16191;49.548;8.658;2023-02-17T00:48:30;101149.16;;;10.41;100.00
29121;BME280;16191;49.548;8.658;2023-02-17T00:50:57;101144.78;;;10.41;100.00
29121;BME280;16191;49.548;8.658;2023-02-17T00:53:26;101148.31;;;10.40;100.00
29121;BME280;16191;49.548;8.658;2023-02-17T00:55:53;101138.72;;;10.41;100.00
29121;BME280;16191;49.548;8.658;2023-02-17T00:58:20;101142.38;;;10.35;100.00
29121;BME280;16191;49.548;8.658;2023-02-17T01:00:47;101131.94;;;10.35;100.00
29121;BME280;16191;49.548;8.658;2023-02-17T01:03:14;101146.75;;;10.33;100.00
29121;BME280;16191;49.548;8.658;2023-02-17T01:05:45;101147.56;;;10.37;100.00
29121;BME280;16191;49.548;8.658;2023-02-17T01:08:14;101144.03;;;10.38;100.00
29121;BME280;16191;49.548;8.658;2023-02-17T01:10:44;101137.13;;;10.37;100.00
29121;BME280;16191;49.548;8.658;2023-02-17T01:13:11;101138.03;;;10.34;100.00
29121;BME280;16191;49.548;8.658;2023-02-17T01:15:40;101137.81;;;10.42;100.00
29121;BME280;16191;49.548;8.658;2023-02-17T01:18:07;101141.13;;;10.48;100.00
29121;BME280;16191;49.548;8.658;2023-02-17T01:20:35;101136.03;;;10.44;100.00
29121;BME280;16191;49.548;8.658;2023-02-17T01:23:04;101125.69;;;10.41;100.00
29121;BME280;16191;49.548;8.658;2023-02-17T01:25:41;101123.22;;;10.36;100.00
29121;BME280;16191;49.548;8.658;2023-02-17T01:28:14;101127.53;;;10.37;100.00
29121;BME280;16191;49.548;8.658;2023-02-17T01:30:41;101123.19;;;10.38;100.00
29121;BME280;16191;49.548;8.658;2023-02-17T01:33:08;101121.41;;;10.38;100.00
29121;BME280;16191;49.548;8.658;2023-02-17T01:35:37;101129.09;;;10.43;100.00
29121;BME280;16191;49.548;8.658;2023-02-17T01:38:04;101122.16;;;10.42;100.00
29121;BME280;16191;49.548;8.658;2023-02-17T01:40:31;101125.53;;;10.47;100.00
29121;BME280;16191;49.548;8.658;2023-02-17T01:42:57;101121.13;;;10.49;100.00
29121;BME280;16191;49.548;8.658;2023-02-17T01:45:34;101131.59;;;10.47;100.00
29121;BME280;16191;49.548;8.658;2023-02-17T01:48:06;101129.94;;;10.45;100.00
29121;BME280;16191;49.548;8.658;2023-02-17T01:50:38;101135.97;;;10.47;100.00
29121;BME280;16191;49.548;8.658;2023-02-17T01:53:10;101130.81;;;10.44;100.00
29121;BME280;16191;49.548;8.658;2023-02-17T01:55:41;101126.50;;;10.43;100.00
29121;BME280;16191;49.548;8.658;2023-02-17T01:58:10;101120.38;;;10.44;100.00
29121;BME280;16191;49.548;8.658;2023-02-17T02:00:41;101119.56;;;10.42;100.00
29121;BME280;16191;49.548;8.658;2023-02-17T02:03:09;101118.56;;;10.47;100.00
29121;BME280;16191;49.548;8.658;2023-02-17T02:05:40;101114.34;;;10.42;100.00
29121;BME280;16191;49.548;8.658;2023-02-17T02:08:08;101113.59;;;10.38;100.00
29121;BME280;16191;49.548;8.658;2023-02-17T02:10:36;101102.34;;;10.36;100.00
29121;BME280;16191;49.548;8.658;2023-02-17T02:13:04;101104.09;;;10.36;100.00
29121;BME280;16191;49.548;8.658;2023-02-17T02:16:02;101106.78;;;10.33;100.00
29121;BME280;16191;49.548;8.658;2023-02-17T02:18:58;101106.84;;;10.29;100.00
29121;BME280;16191;49.548;8.658;2023-02-17T02:27:18;101107.78;;;10.27;100.00
29121;BME280;16191;49.548;8.658;2023-02-17T02:30:22;101106.19;;;10.21;100.00
29121;BME280;16191;49.548;8.658;2023-02-17T02:32:57;101103.63;;;10.20;100.00
29121;BME280;16191;49.548;8.658;2023-02-17T02:35:34;101109.75;;;10.17;100.00
29121;BME280;16191;49.548;8.658;2023-02-17T02:38:36;101102.97;;;10.10;100.00
29121;BME280;16191;49.548;8.658;2023-02-17T02:41:14;101097.84;;;10.07;100.00
29121;BME280;16191;49.548;8.658;2023-02-17T02:43:43;101091.72;;;10.08;100.00
29121;BME280;16191;49.548;8.658;2023-02-17T02:46:10;101076.16;;;10.05;100.00
29121;BME280;16191;49.548;8.658;2023-02-17T02:48:38;101079.63;;;10.06;100.00
29121;BME280;16191;49.548;8.658;2023-02-17T02:51:20;101071.88;;;10.03;100.00
29121;BME280;16191;49.548;8.658;2023-02-17T02:59:52;101064.00;;;10.04;100.00
29121;BME280;16191;49.548;8.658;2023-02-17T03:02:54;101057.91;;;10.05;100.00
29121;BME280;16191;49.548;8.658;2023-02-17T03:05:50;101050.03;;;10.07;100.00
29121;BME280;16191;49.548;8.658;2023-02-17T03:08:30;101052.59;;;10.08;100.00
29121;BME280;16191;49.548;8.658;2023-02-17T03:10:59;101052.63;;;10.07;100.00
29121;BME280;16191;49.548;8.658;2023-02-17T03:13:33;101052.53;;;10.11;100.00
29121;BME280;16191;49.548;8.658;2023-02-17T03:16:05;101040.44;;;10.09;100.00
29121;BME280;16191;49.548;8.658;2023-02-17T03:18:34;101046.50;;;10.09;100.00
29121;BME280;16191;49.548;8.658;2023-02-17T03:21:05;101045.69;;;10.07;100.00
29121;BME280;16191;49.548;8.658;2023-02-17T03:23:37;101049.22;;;10.05;100.00
29121;BME280;16191;49.548;8.658;2023-02-17T03:26:03;101044.81;;;10.07;100.00
29121;BME280;16191;49.548;8.658;2023-02-17T03:28:31;101050.88;;;10.07;100.00
29121;BME280;16191;49.548;8.658;2023-02-17T03:30:57;101050.00;;;10.08;100.00
29121;BME280;16191;49.548;8.658;2023-02-17T03:33:25;101048.25;;;10.09;100.00
29121;BME280;16191;49.548;8.658;2023-02-17T03:35:51;101047.38;;;10.08;100.00
29121;BME280;16191;49.548;8.658;2023-02-17T03:38:19;101046.50;;;10.09;100.00
29121;BME280;16191;49.548;8.658;2023-02-17T03:40:46;101037.78;;;10.10;100.00
29121;BME280;16191;49.548;8.658;2023-02-17T03:43:14;101035.16;;;10.10;100.00
29121;BME280;16191;49.548;8.658;2023-02-17T03:45:44;101027.28;;;10.13;100.00
29121;BME280;16191;49.548;8.658;2023-02-17T03:48:10;101028.09;;;10.15;100.00
29121;BME280;16191;49.548;8.658;2023-02-17T03:50:37;101042.00;;;10.16;100.00
29121;BME280;16191;49.548;8.658;2023-02-17T03:53:03;101034.94;;;10.19;100.00
29121;BME280;16191;49.548;8.658;2023-02-17T03:55:30;101034.91;;;10.21;100.00
29121;BME280;16191;49.548;8.658;2023-02-17T03:57:57;101036.69;;;10.19;100.00
29121;BME280;16191;49.548;8.658;2023-02-17T04:00:24;101035.81;;;10.18;100.00
29121;BME280;16191;49.548;8.658;2023-02-17T04:02:50;101044.56;;;10.17;100.00
29121;BME280;16191;49.548;8.658;2023-02-17T04:05:17;101047.19;;;10.16;100.00
29121;BME280;16191;49.548;8.658;2023-02-17T04:07:44;101047.25;;;10.14;100.00
29121;BME280;16191;49.548;8.658;2023-02-17T04:10:10;101052.53;;;10.11;100.00
29121;BME280;16191;49.548;8.658;2023-02-17T04:12:37;101055.13;;;10.11;100.00
29121;BME280;16191;49.548;8.658;2023-02-17T04:15:05;101059.59;;;10.06;100.00
29121;BME280;16191;49.548;8.658;2023-02-17T04:17:32;101053.56;;;10.04;100.00
29121;BME280;16191;49.548;8.658;2023-02-17T04:19:58;101065.72;;;10.05;100.00
29121;BME280;16191;49.548;8.658;2023-02-17T04:22:26;101066.66;;;10.03;100.00
29121;BME280;16191;49.548;8.658;2023-02-17T04:24:52;101070.03;;;10.06;100.00
29121;BME280;16191;49.548;8.658;2023-02-17T04:27:19;101061.44;;;10.03;100.00
29121;BME280;16191;49.548;8.658;2023-02-17T04:29:46;101065.81;;;10.01;100.00
29121;BME280;16191;49.548;8.658;2023-02-17T04:32:13;101066.75;;;9.98;100.00
29121;BME280;16191;49.548;8.658;2023-02-17T04:34:40;101069.31;;;10.00;100.00
29121;BME280;16191;49.548;8.658;2023-02-17T04:37:09;101079.94;;;9.93;100.00
29121;BME280;16191;49.548;8.658;2023-02-17T04:39:36;101076.47;;;9.93;100.00
29121;BME280;16191;49.548;8.658;2023-02-17T04:42:03;101079.91;;;9.95;100.00
29121;BME280;16191;49.548;8.658;2023-02-17T04:44:30;101082.63;;;9.90;100.00
29121;BME280;16191;49.548;8.658;2023-02-17T04:46:57;101076.59;;;9.88;100.00
29121;BME280;16191;49.548;8.658;2023-02-17T04:49:24;101076.63;;;9.87;100.00
29121;BME280;16191;49.548;8.658;2023-02-17T04:51:51;101070.47;;;9.89;100.00
29121;BME280;16191;49.548;8.658;2023-02-17T04:54:18;101071.31;;;9.90;100.00
29121;BME280;16191;49.548;8.658;2023-02-17T04:56:45;101071.41;;;9.87;100.00
29121;BME280;16191;49.548;8.658;2023-02-17T04:59:11;101087.88;;;9.89;100.00
29121;BME280;16191;49.548;8.658;2023-02-17T05:01:38;101079.28;;;9.84;100.00
29121;BME280;16191;49.548;8.658;2023-02-17T05:04:05;101078.41;;;9.85;100.00
29121;BME280;16191;49.548;8.658;2023-02-17T05:06:32;101077.56;;;9.83;100.00
29121;BME280;16191;49.548;8.658;2023-02-17T05:08:58;101083.75;;;9.79;100.00
29121;BME280;16191;49.548;8.658;2023-02-17T05:11:25;101077.50;;;9.86;100.00
29121;BME280;16191;49.548;8.658;2023-02-17T05:13:52;101075.91;;;9.80;100.00
29121;BME280;16191;49.548;8.658;2023-02-17T05:16:19;101068.13;;;9.79;100.00
29121;BME280;16191;49.548;8.658;2023-02-17T05:18:45;101067.22;;;9.80;100.00
29121;BME280;16191;49.548;8.658;2023-02-17T05:21:12;101079.44;;;9.78;100.00
29121;BME280;16191;49.548;8.658;2023-02-17T05:23:40;101079.38;;;9.81;100.00
29121;BME280;16191;49.548;8.658;2023-02-17T05:26:07;101084.69;;;9.76;100.00
29121;BME280;16191;49.548;8.658;2023-02-17T05:28:36;101082.94;;;9.77;100.00
29121;BME280;16191;49.548;8.658;2023-02-17T05:31:03;101085.53;;;9.77;100.00
29121;BME280;16191;49.548;8.658;2023-02-17T05:33:29;101082.94;;;9.77;100.00
29121;BME280;16191;49.548;8.658;2023-02-17T05:36:01;101078.81;;;9.68;100.00
29121;BME280;16191;49.548;8.658;2023-02-17T05:38:29;101085.72;;;9.71;100.00
29121;BME280;16191;49.548;8.658;2023-02-17T05:40:56;101089.25;;;9.68;100.00
29121;BME280;16191;49.548;8.658;2023-02-17T05:43:26;101089.22;;;9.70;100.00
29121;BME280;16191;49.548;8.658;2023-02-17T05:45:53;101086.59;;;9.70;100.00
29121;BME280;16191;49.548;8.658;2023-02-17T05:48:20;101085.75;;;9.69;100.00
29121;BME280;16191;49.548;8.658;2023-02-17T05:50:47;101084.88;;;9.69;100.00
29121;BME280;16191;49.548;8.658;2023-02-17T05:53:14;101080.53;;;9.69;100.00
29121;BME280;16191;49.548;8.658;2023-02-17T05:55:40;101076.09;;;9.73;100.00
29121;BME280;16191;49.548;8.658;2023-02-17T05:58:07;101084.00;;;9.70;100.00
29121;BME280;16191;49.548;8.658;2023-02-17T06:00:34;101078.78;;;9.70;100.00
29121;BME280;16191;49.548;8.658;2023-02-17T06:03:03;101090.13;;;9.67;100.00
29121;BME280;16191;49.548;8.658;2023-02-17T06:05:29;101104.91;;;9.67;100.00
29121;BME280;16191;49.548;8.658;2023-02-17T06:07:56;101097.91;;;9.69;100.00
29121;BME280;16191;49.548;8.658;2023-02-17T06:10:24;101097.94;;;9.67;100.00
29121;BME280;16191;49.548;8.658;2023-02-17T06:12:50;101104.97;;;9.63;100.00
29121;BME280;16191;49.548;8.658;2023-02-17T06:15:17;101109.28;;;9.65;100.00
29121;BME280;16191;49.548;8.658;2023-02-17T06:17:44;101105.00;;;9.62;100.00
29121;BME280;16191;49.548;8.658;2023-02-17T06:20:11;101112.75;;;9.65;100.00
29121;BME280;16191;49.548;8.658;2023-02-17T06:22:37;101117.13;;;9.65;100.00
29121;BME280;16191;49.548;8.658;2023-02-17T06:25:04;101112.81;;;9.62;100.00
29121;BME280;16191;49.548;8.658;2023-02-17T06:27:31;101114.56;;;9.61;100.00
29121;BME280;16191;49.548;8.658;2023-02-17T06:29:57;101118.00;;;9.63;100.00
29121;BME280;16191;49.548;8.658;2023-02-17T06:32:25;101115.47;;;9.60;100.00
29121;BME280;16191;49.548;8.658;2023-02-17T06:34:52;101119.84;;;9.58;100.00
29121;BME280;16191;49.548;8.658;2023-02-17T06:37:18;101100.78;;;9.56;100.00
29121;BME280;16191;49.548;8.658;2023-02-17T06:39:46;101108.59;;;9.56;100.00
29121;BME280;16191;49.548;8.658;2023-02-17T06:42:34;101111.22;;;9.56;100.00
29121;BME280;16191;49.548;8.658;2023-02-17T06:45:01;101106.06;;;9.53;100.00
29121;BME280;16191;49.548;8.658;2023-02-17T06:47:33;101108.66;;;9.53;100.00
29121;BME280;16191;49.548;8.658;2023-02-17T06:50:00;101107.81;;;9.53;100.00
29121;BME280;16191;49.548;8.658;2023-02-17T06:52:27;101113.88;;;9.53;100.00
29121;BME280;16191;49.548;8.658;2023-02-17T06:54:54;101105.31;;;9.50;100.00
29121;BME280;16191;49.548;8.658;2023-02-17T06:57:20;101109.59;;;9.52;100.00
29121;BME280;16191;49.548;8.658;2023-02-17T06:59:47;101111.38;;;9.50;100.00
29121;BME280;16191;49.548;8.658;2023-02-17T07:02:14;101122.72;;;9.48;100.00
29121;BME280;16191;49.548;8.658;2023-02-17T07:04:43;101136.63;;;9.47;100.00
29121;BME280;16191;49.548;8.658;2023-02-17T07:07:12;101132.28;;;9.47;100.00
29121;BME280;16191;49.548;8.658;2023-02-17T07:09:39;101134.06;;;9.45;100.00
29121;BME280;16191;49.548;8.658;2023-02-17T07:12:06;101137.63;;;9.41;100.00
29121;BME280;16191;49.548;8.658;2023-02-17T07:14:34;101148.00;;;9.43;100.00
29121;BME280;16191;49.548;8.658;2023-02-17T07:17:00;101147.97;;;9.44;100.00
29121;BME280;16191;49.548;8.658;2023-02-17T07:19:27;101152.44;;;9.38;100.00
29121;BME280;16191;49.548;8.658;2023-02-17T07:21:54;101156.81;;;9.36;100.00
29121;BME280;16191;49.548;8.658;2023-02-17T07:24:20;101163.63;;;9.43;100.00
29121;BME280;16191;49.548;8.658;2023-02-17T07:26:47;101163.69;;;9.40;100.00
29121;BME280;16191;49.548;8.658;2023-02-17T07:29:14;101167.09;;;9.43;100.00
29121;BME280;16191;49.548;8.658;2023-02-17T07:31:41;101169.75;;;9.40;100.00
29121;BME280;16191;49.548;8.658;2023-02-17T07:34:07;101171.47;;;9.41;100.00
29121;BME280;16191;49.548;8.658;2023-02-17T07:36:34;101172.34;;;9.42;100.00
29121;BME280;16191;49.548;8.658;2023-02-17T07:39:02;101176.75;;;9.38;100.00
29121;BME280;16191;49.548;8.658;2023-02-17T07:41:29;101187.03;;;9.46;100.00
29121;BME280;16191;49.548;8.658;2023-02-17T07:44:07;101181.84;;;9.44;100.00
29121;BME280;16191;49.548;8.658;2023-02-17T07:46:36;101196.63;;;9.42;100.00
29121;BME280;16191;49.548;8.658;2023-02-17T07:49:05;101188.78;;;9.44;100.00
29121;BME280;16191;49.548;8.658;2023-02-17T07:51:32;101193.22;;;9.40;100.00
29121;BME280;16191;49.548;8.658;2023-02-17T07:53:59;101184.44;;;9.44;100.00
29121;BME280;16191;49.548;8.658;2023-02-17T07:56:26;101175.72;;;9.47;100.00
29121;BME280;16191;49.548;8.658;2023-02-17T07:58:55;101176.59;;;9.46;100.00
29121;BME280;16191;49.548;8.658;2023-02-17T08:01:24;101176.50;;;9.50;100.00
29121;BME280;16191;49.548;8.658;2023-02-17T08:03:52;101175.66;;;9.50;100.00
29121;BME280;16191;49.548;8.658;2023-02-17T08:06:21;101173.00;;;9.51;100.00
29121;BME280;16191;49.548;8.658;2023-02-17T08:08:50;101177.28;;;9.54;100.00
29121;BME280;16191;49.548;8.658;2023-02-17T08:11:36;101166.06;;;9.52;100.00
29121;BME280;16191;49.548;8.658;2023-02-17T08:14:24;101168.66;;;9.52;100.00
29121;BME280;16191;49.548;8.658;2023-02-17T08:16:56;101171.13;;;9.56;100.00
29121;BME280;16191;49.548;8.658;2023-02-17T08:19:23;101166.81;;;9.55;100.00
29121;BME280;16191;49.548;8.658;2023-02-17T08:21:55;101165.94;;;9.56;100.00
29121;BME280;16191;49.548;8.658;2023-02-17T08:24:22;101174.56;;;9.58;100.00
29121;BME280;16191;49.548;8.658;2023-02-17T08:26:50;101174.53;;;9.60;100.00
29121;BME280;16191;49.548;8.658;2023-02-17T08:29:17;101174.53;;;9.60;100.00
29121;BME280;16191;49.548;8.658;2023-02-17T08:31:45;101178.84;;;9.62;100.00
29121;BME280;16191;49.548;8.658;2023-02-17T08:34:13;101186.66;;;9.62;100.00
29121;BME280;16191;49.548;8.658;2023-02-17T08:36:39;101186.56;;;9.67;100.00
29121;BME280;16191;49.548;8.658;2023-02-17T08:39:13;101181.44;;;9.62;100.00
29121;BME280;16191;49.548;8.658;2023-02-17T08:41:42;101187.53;;;9.61;100.00
29121;BME280;16191;49.548;8.658;2023-02-17T08:44:13;101187.47;;;9.65;100.00
29121;BME280;16191;49.548;8.658;2023-02-17T08:46:41;101183.09;;;9.67;100.00
29121;BME280;16191;49.548;8.658;2023-02-17T08:49:09;101178.72;;;9.67;100.00
29121;BME280;16191;49.548;8.658;2023-02-17T08:51:36;101181.34;;;9.67;100.00
29121;BME280;16191;49.548;8.658;2023-02-17T08:54:05;101181.38;;;9.66;100.00
29121;BME280;16191;49.548;8.658;2023-02-17T08:56:33;101172.63;;;9.68;100.00
29121;BME280;16191;49.548;8.658;2023-02-17T08:58:59;101184.72;;;9.72;100.00
29121;BME280;16191;49.548;8.658;2023-02-17T09:01:26;101173.41;;;9.73;100.00
29121;BME280;16191;49.548;8.658;2023-02-17T09:03:55;101159.38;;;9.77;100.00
29121;BME280;16191;49.548;8.658;2023-02-17T09:06:23;101163.72;;;9.77;100.00
29121;BME280;16191;49.548;8.658;2023-02-17T09:08:51;101174.97;;;9.79;100.00
29121;BME280;16191;49.548;8.658;2023-02-17T09:11:17;101169.72;;;9.80;100.00
29121;BME280;16191;49.548;8.658;2023-02-17T09:13:46;101168.88;;;9.80;100.00
29121;BME280;16191;49.548;8.658;2023-02-17T09:16:14;101174.03;;;9.83;100.00
29121;BME280;16191;49.548;8.658;2023-02-17T09:18:41;101174.78;;;9.88;100.00
29121;BME280;16191;49.548;8.658;2023-02-17T09:21:10;101170.44;;;9.88;100.00
29121;BME280;16191;49.548;8.658;2023-02-17T09:23:38;101163.44;;;9.90;100.00
29121;BME280;16191;49.548;8.658;2023-02-17T09:26:07;101168.72;;;9.87;100.00
29121;BME280;16191;49.548;8.658;2023-02-17T09:28:35;101173.97;;;9.86;100.00
29121;BME280;16191;49.548;8.658;2023-02-17T09:33:40;101168.63;;;9.92;100.00
29121;BME280;16191;49.548;8.658;2023-02-17T09:36:09;101172.91;;;9.94;100.00
29121;BME280;16191;49.548;8.658;2023-02-17T09:38:41;101180.63;;;9.97;100.00
29121;BME280;16191;49.548;8.658;2023-02-17T09:41:20;101175.59;;;9.90;100.00
29121;BME280;16191;49.548;8.658;2023-02-17T09:43:49;101173.91;;;9.89;100.00
29121;BME280;16191;49.548;8.658;2023-02-17T09:48:54;101185.34;;;9.82;100.00
29121;BME280;16191;49.548;8.658;2023-02-17T09:51:50;101180.19;;;9.79;100.00
29121;BME280;16191;49.548;8.658;2023-02-17T09:54:21;101178.38;;;9.82;100.00
29121;BME280;16191;49.548;8.658;2023-02-17T09:56:51;101176.63;;;9.83;100.00
29121;BME280;16191;49.548;8.658;2023-02-17T10:01:50;101179.97;;;9.89;100.00
29121;BME280;16191;49.548;8.658;2023-02-17T10:04:36;101193.81;;;9.91;100.00
29121;BME280;16191;49.548;8.658;2023-02-17T10:07:10;101191.25;;;9.90;100.00
29121;BME280;16191;49.548;8.658;2023-02-17T10:09:48;101193.81;;;9.91;100.00
29121;BME280;16191;49.548;8.658;2023-02-17T10:12:29;101204.28;;;9.90;100.00
29121;BME280;16191;49.548;8.658;2023-02-17T10:15:08;101198.19;;;9.91;100.00
29121;BME280;16191;49.548;8.658;2023-02-17T10:20:30;101201.69;;;9.90;100.00
29121;BME280;16191;49.548;8.658;2023-02-17T10:28:55;101220.59;;;9.98;100.00
29121;BME280;16191;49.548;8.658;2023-02-17T10:31:46;101217.06;;;10.01;100.00
29121;BME280;16191;49.548;8.658;2023-02-17T10:35:02;101212.69;;;10.01;100.00
29121;BME280;16191;49.548;8.658;2023-02-17T10:37:48;101213.47;;;10.06;100.00
29121;BME280;16191;49.548;8.658;2023-02-17T10:40:24;101220.41;;;10.07;100.00
29121;BME280;16191;49.548;8.658;2023-02-17T10:42:58;101215.97;;;10.11;100.00
29121;BME280;16191;49.548;8.658;2023-02-17T10:45:37;101222.94;;;10.10;100.00
29121;BME280;16191;49.548;8.658;2023-02-17T10:48:15;101225.56;;;10.09;100.00
29121;BME280;16191;49.548;8.658;2023-02-17T10:50:45;101209.94;;;10.09;100.00
29121;BME280;16191;49.548;8.658;2023-02-17T10:53:20;101214.28;;;10.08;100.00
29121;BME280;16191;49.548;8.658;2023-02-17T10:58:31;101209.69;;;10.18;100.00
29121;BME280;16191;49.548;8.658;2023-02-17T11:01:01;101203.63;;;10.19;100.00
29121;BME280;16191;49.548;8.658;2023-02-17T11:03:31;101208.75;;;10.22;100.00
29121;BME280;16191;49.548;8.658;2023-02-17T11:06:04;101209.59;;;10.24;100.00
29121;BME280;16191;49.548;8.658;2023-02-17T11:08:38;101209.50;;;10.27;100.00
29121;BME280;16191;49.548;8.658;2023-02-17T11:13:43;101198.16;;;10.29;100.00
29121;BME280;16191;49.548;8.658;2023-02-17T11:16:39;101196.38;;;10.32;100.00
29121;BME280;16191;49.548;8.658;2023-02-17T11:19:28;101188.41;;;10.38;100.00
29121;BME280;16191;49.548;8.658;2023-02-17T11:21:57;101179.53;;;10.43;100.00
29121;BME280;16191;49.548;8.658;2023-02-17T11:24:25;101183.84;;;10.44;100.00
29121;BME280;16191;49.548;8.658;2023-02-17T11:27:03;101175.91;;;10.49;100.00
29121;BME280;16191;49.548;8.658;2023-02-17T11:29:31;101178.47;;;10.52;100.00
29121;BME280;16191;49.548;8.658;2023-02-17T11:32:00;101180.13;;;10.54;100.00
29121;BME280;16191;49.548;8.658;2023-02-17T11:34:31;101173.16;;;10.55;100.00
29121;BME280;16191;49.548;8.658;2023-02-17T11:37:05;101167.84;;;10.59;100.00
29121;BME280;16191;49.548;8.658;2023-02-17T11:39:44;101169.47;;;10.62;100.00
29121;BME280;16191;49.548;8.658;2023-02-17T11:42:29;101165.13;;;10.62;100.00
29121;BME280;16191;49.548;8.658;2023-02-17T11:44:58;101165.94;;;10.64;100.00
29121;BME280;16191;49.548;8.658;2023-02-17T11:50:15;101155.38;;;10.69;100.00
29121;BME280;16191;49.548;8.658;2023-02-17T11:53:20;101156.19;;;10.71;100.00
29121;BME280;16191;49.548;8.658;2023-02-17T11:56:09;101146.56;;;10.73;100.00
29121;BME280;16191;49.548;8.658;2023-02-17T11:58:50;101144.66;;;10.80;100.00
29121;BME280;16191;49.548;8.658;2023-02-17T12:01:30;101138.44;;;10.84;100.00
29121;BME280;16191;49.548;8.658;2023-02-17T12:04:29;101154.94;;;10.84;100.00
29121;BME280;16191;49.548;8.658;2023-02-17T12:10:04;101162.66;;;10.89;100.00
29121;BME280;16191;49.548;8.658;2023-02-17T12:12:54;101158.25;;;10.91;100.00
29121;BME280;16191;49.548;8.658;2023-02-17T12:15:51;101151.16;;;10.96;100.00
29121;BME280;16191;49.548;8.658;2023-02-17T12:24:26;101154.47;;;11.03;100.00
29121;BME280;16191;49.548;8.658;2023-02-17T12:35:37;101153.19;;;11.16;100.00
29121;BME280;16191;49.548;8.658;2023-02-17T12:38:15;101151.44;;;11.16;100.00
29121;BME280;16191;49.548;8.658;2023-02-17T12:40:50;101149.56;;;11.21;100.00
29121;BME280;16191;49.548;8.658;2023-02-17T12:43:33;101153.84;;;11.24;100.00
29121;BME280;16191;49.548;8.658;2023-02-17T12:46:11;101157.25;;;11.26;100.00
29121;BME280;16191;49.548;8.658;2023-02-17T12:48:44;101144.91;;;11.31;100.00
29121;BME280;16191;49.548;8.658;2023-02-17T12:51:25;101149.88;;;11.40;100.00
29121;BME280;16191;49.548;8.658;2023-02-17T12:54:09;101139.44;;;11.40;100.00
29121;BME280;16191;49.548;8.658;2023-02-17T12:56:58;101139.34;;;11.43;100.00
29121;BME280;16191;49.548;8.658;2023-02-17T13:02:02;101130.34;;;11.52;100.00
29121;BME280;16191;49.548;8.658;2023-02-17T13:04:30;101122.50;;;11.52;100.00
29121;BME280;16191;49.548;8.658;2023-02-17T13:10:00;101122.00;;;11.68;100.00
29121;BME280;16191;49.548;8.658;2023-02-17T13:12:32;101112.94;;;11.80;100.00
29121;BME280;16191;49.548;8.658;2023-02-17T13:15:05;101107.56;;;11.85;100.00
29121;BME280;16191;49.548;8.658;2023-02-17T13:17:37;101116.97;;;11.90;100.00
29121;BME280;16191;49.548;8.658;2023-02-17T13:22:41;101104.34;;;12.03;100.00
29121;BME280;16191;49.548;8.658;2023-02-17T13:25:26;101095.69;;;12.01;100.00
29121;BME280;16191;49.548;8.658;2023-02-17T13:28:29;101101.09;;;11.95;100.00
29121;BME280;16191;49.548;8.658;2023-02-17T13:31:26;101093.25;;;11.95;100.00
29121;BME280;16191;49.548;8.658;2023-02-17T13:33:57;101088.84;;;11.97;100.00
29121;BME280;16191;49.548;8.658;2023-02-17T13:38:58;101093.69;;;12.09;100.00
29121;BME280;16191;49.548;8.658;2023-02-17T13:41:28;101091.91;;;12.10;100.00
29121;BME280;16191;49.548;8.658;2023-02-17T13:43:58;101112.81;;;12.11;100.00
29121;BME280;16191;49.548;8.658;2023-02-17T13:46:26;101098.81;;;12.12;100.00
29121;BME280;16191;49.548;8.658;2023-02-17T13:49:04;101085.84;;;12.09;100.00
29121;BME280;16191;49.548;8.658;2023-02-17T13:51:32;101085.94;;;12.06;100.00
29121;BME280;16191;49.548;8.658;2023-02-17T13:54:07;101092.16;;;12.02;100.00
29121;BME280;16191;49.548;8.658;2023-02-17T13:56:35;101103.53;;;12.01;100.00
29121;BME280;16191;49.548;8.658;2023-02-17T13:59:16;101103.78;;;11.93;100.00
29121;BME280;16191;49.548;8.658;2023-02-17T14:01:46;101104.72;;;11.91;100.00
29121;BME280;16191;49.548;8.658;2023-02-17T14:06:48;101113.59;;;11.87;100.00
29121;BME280;16191;49.548;8.658;2023-02-17T14:11:49;101115.44;;;11.83;100.00
29121;BME280;16191;49.548;8.658;2023-02-17T14:14:17;101114.69;;;11.80;100.00
29121;BME280;16191;49.548;8.658;2023-02-17T14:16:53;101115.63;;;11.77;100.00